sensor_id;sensor_type;location;lat;lon;timestamp;P1;durP1;ratioP1;P2;durP2;ratioP2
70707;SDS011;58277;47.316;18.908;2023-03-01T00:02:04;25.48;;;10.32;;
70707;SDS011;58277;47.316;18.908;2023-03-01T00:04:27;22.05;;;9.52;;
70707;SDS011;58277;47.316;18.908;2023-03-01T00:06:49;22.35;;;9.65;;
70707;SDS011;58277;47.316;18.908;2023-03-01T00:09:13;24.43;;;9.87;;
70707;SDS011;58277;47.316;18.908;2023-03-01T00:11:36;21.67;;;9.48;;
70707;SDS011;58277;47.316;18.908;2023-03-01T00:14:01;23.17;;;9.68;;
70707;SDS011;58277;47.316;18.908;2023-03-01T00:16:34;20.63;;;8.68;;
70707;SDS011;58277;47.316;18.908;2023-03-01T00:18:58;21.67;;;9.27;;
70707;SDS011;58277;47.316;18.908;2023-03-01T00:21:22;24.43;;;9.40;;
70707;SDS011;58277;47.316;18.908;2023-03-01T00:23:45;24.05;;;9.38;;
70707;SDS011;58277;47.316;18.908;2023-03-01T00:26:09;22.45;;;9.30;;
70707;SDS011;58277;47.316;18.908;2023-03-01T00:28:35;26.20;;;10.20;;
70707;SDS011;58277;47.316;18.908;2023-03-01T00:31:04;26.67;;;10.10;;
70707;SDS011;58277;47.316;18.908;2023-03-01T00:33:28;22.13;;;10.00;;
70707;SDS011;58277;47.316;18.908;2023-03-01T00:35:51;23.00;;;9.07;;
70707;SDS011;58277;47.316;18.908;2023-03-01T00:38:13;22.88;;;10.20;;
70707;SDS011;58277;47.316;18.908;2023-03-01T00:40:36;26.08;;;9.90;;
70707;SDS011;58277;47.316;18.908;2023-03-01T00:42:59;22.50;;;10.05;;
70707;SDS011;58277;47.316;18.908;2023-03-01T00:45:22;23.70;;;10.10;;
70707;SDS011;58277;47.316;18.908;2023-03-01T00:47:45;21.55;;;9.60;;
70707;SDS011;58277;47.316;18.908;2023-03-01T00:50:09;26.73;;;10.00;;
70707;SDS011;58277;47.316;18.908;2023-03-01T00:52:33;24.88;;;10.38;;
70707;SDS011;58277;47.316;18.908;2023-03-01T00:54:56;25.35;;;9.95;;
70707;SDS011;58277;47.316;18.908;2023-03-01T00:57:20;22.90;;;9.87;;
70707;SDS011;58277;47.316;18.908;2023-03-01T00:59:42;22.98;;;9.50;;
70707;SDS011;58277;47.316;18.908;2023-03-01T01:02:05;22.80;;;10.15;;
70707;SDS011;58277;47.316;18.908;2023-03-01T01:04:28;23.08;;;8.98;;
70707;SDS011;58277;47.316;18.908;2023-03-01T01:06:51;26.25;;;9.57;;
70707;SDS011;58277;47.316;18.908;2023-03-01T01:09:15;20.70;;;8.83;;
70707;SDS011;58277;47.316;18.908;2023-03-01T01:11:39;23.80;;;9.38;;
70707;SDS011;58277;47.316;18.908;2023-03-01T01:14:02;24.08;;;9.88;;
70707;SDS011;58277;47.316;18.908;2023-03-01T01:16:26;24.23;;;9.32;;
70707;SDS011;58277;47.316;18.908;2023-03-01T01:18:50;21.17;;;9.02;;
70707;SDS011;58277;47.316;18.908;2023-03-01T01:21:14;22.10;;;8.83;;
70707;SDS011;58277;47.316;18.908;2023-03-01T01:23:39;19.52;;;8.73;;
70707;SDS011;58277;47.316;18.908;2023-03-01T01:26:03;22.30;;;8.93;;
70707;SDS011;58277;47.316;18.908;2023-03-01T01:28:27;23.00;;;9.05;;
70707;SDS011;58277;47.316;18.908;2023-03-01T01:30:49;22.35;;;9.55;;
70707;SDS011;58277;47.316;18.908;2023-03-01T01:33:12;25.67;;;9.30;;
70707;SDS011;58277;47.316;18.908;2023-03-01T01:35:35;24.13;;;9.52;;
70707;SDS011;58277;47.316;18.908;2023-03-01T01:37:57;21.63;;;8.75;;
70707;SDS011;58277;47.316;18.908;2023-03-01T01:40:20;21.80;;;8.77;;
70707;SDS011;58277;47.316;18.908;2023-03-01T01:42:43;21.80;;;8.77;;
70707;SDS011;58277;47.316;18.908;2023-03-01T01:45:26;21.47;;;9.23;;
70707;SDS011;58277;47.316;18.908;2023-03-01T01:47:50;20.92;;;8.93;;
70707;SDS011;58277;47.316;18.908;2023-03-01T01:50:15;22.90;;;9.10;;
70707;SDS011;58277;47.316;18.908;2023-03-01T01:52:40;20.45;;;7.65;;
70707;SDS011;58277;47.316;18.908;2023-03-01T01:55:05;19.75;;;8.27;;
70707;SDS011;58277;47.316;18.908;2023-03-01T02:00:04;19.10;;;7.97;;
70707;SDS011;58277;47.316;18.908;2023-03-01T02:02:38;20.70;;;8.82;;
70707;SDS011;58277;47.316;18.908;2023-03-01T02:08:05;19.65;;;8.25;;
70707;SDS011;58277;47.316;18.908;2023-03-01T02:10:32;19.00;;;7.67;;
70707;SDS011;58277;47.316;18.908;2023-03-01T02:12:56;21.42;;;8.02;;
70707;SDS011;58277;47.316;18.908;2023-03-01T02:15:20;20.00;;;8.23;;
70707;SDS011;58277;47.316;18.908;2023-03-01T02:17:42;20.67;;;8.77;;
70707;SDS011;58277;47.316;18.908;2023-03-01T02:22:44;20.50;;;7.73;;
70707;SDS011;58277;47.316;18.908;2023-03-01T02:30:14;19.98;;;7.75;;
70707;SDS011;58277;47.316;18.908;2023-03-01T02:32:40;20.50;;;8.05;;
70707;SDS011;58277;47.316;18.908;2023-03-01T02:35:04;23.50;;;9.10;;
70707;SDS011;58277;47.316;18.908;2023-03-01T02:37:28;17.88;;;7.65;;
70707;SDS011;58277;47.316;18.908;2023-03-01T02:39:55;20.98;;;8.57;;
70707;SDS011;58277;47.316;18.908;2023-03-01T02:42:26;19.95;;;7.93;;
70707;SDS011;58277;47.316;18.908;2023-03-01T02:44:52;21.52;;;8.63;;
70707;SDS011;58277;47.316;18.908;2023-03-01T02:47:15;21.77;;;8.63;;
70707;SDS011;58277;47.316;18.908;2023-03-01T02:49:38;22.85;;;8.55;;
70707;SDS011;58277;47.316;18.908;2023-03-01T02:54:42;22.50;;;8.00;;
70707;SDS011;58277;47.316;18.908;2023-03-01T02:57:27;21.13;;;8.13;;
70707;SDS011;58277;47.316;18.908;2023-03-01T02:59:51;18.73;;;7.93;;
70707;SDS011;58277;47.316;18.908;2023-03-01T03:02:22;20.05;;;7.75;;
70707;SDS011;58277;47.316;18.908;2023-03-01T03:05:17;21.27;;;8.35;;
70707;SDS011;58277;47.316;18.908;2023-03-01T03:07:44;18.77;;;7.85;;
70707;SDS011;58277;47.316;18.908;2023-03-01T03:10:17;19.30;;;7.93;;
70707;SDS011;58277;47.316;18.908;2023-03-01T03:12:43;19.57;;;8.20;;
70707;SDS011;58277;47.316;18.908;2023-03-01T03:15:06;19.13;;;8.10;;
70707;SDS011;58277;47.316;18.908;2023-03-01T03:17:31;19.02;;;8.00;;
70707;SDS011;58277;47.316;18.908;2023-03-01T03:19:54;22.77;;;8.40;;
70707;SDS011;58277;47.316;18.908;2023-03-01T03:22:17;19.70;;;7.90;;
70707;SDS011;58277;47.316;18.908;2023-03-01T03:24:39;18.17;;;7.77;;
70707;SDS011;58277;47.316;18.908;2023-03-01T03:27:02;20.40;;;8.10;;
70707;SDS011;58277;47.316;18.908;2023-03-01T03:29:25;19.17;;;7.95;;
70707;SDS011;58277;47.316;18.908;2023-03-01T03:31:48;18.55;;;7.93;;
70707;SDS011;58277;47.316;18.908;2023-03-01T03:34:11;21.40;;;8.35;;
70707;SDS011;58277;47.316;18.908;2023-03-01T03:36:40;22.03;;;7.43;;
70707;SDS011;58277;47.316;18.908;2023-03-01T03:39:03;18.30;;;8.27;;
70707;SDS011;58277;47.316;18.908;2023-03-01T03:41:27;23.48;;;8.13;;
70707;SDS011;58277;47.316;18.908;2023-03-01T03:43:49;18.45;;;7.35;;
70707;SDS011;58277;47.316;18.908;2023-03-01T03:46:12;20.85;;;8.00;;
70707;SDS011;58277;47.316;18.908;2023-03-01T03:48:36;20.13;;;7.80;;
70707;SDS011;58277;47.316;18.908;2023-03-01T03:51:01;18.98;;;7.68;;
70707;SDS011;58277;47.316;18.908;2023-03-01T03:53:28;17.73;;;7.80;;
70707;SDS011;58277;47.316;18.908;2023-03-01T03:55:51;20.27;;;8.18;;
70707;SDS011;58277;47.316;18.908;2023-03-01T03:58:15;18.52;;;7.28;;
70707;SDS011;58277;47.316;18.908;2023-03-01T04:00:43;21.03;;;7.90;;
70707;SDS011;58277;47.316;18.908;2023-03-01T04:03:07;20.92;;;7.97;;
70707;SDS011;58277;47.316;18.908;2023-03-01T04:05:31;21.05;;;8.02;;
70707;SDS011;58277;47.316;18.908;2023-03-01T04:07:53;18.92;;;7.85;;
70707;SDS011;58277;47.316;18.908;2023-03-01T04:10:23;20.42;;;8.05;;
70707;SDS011;58277;47.316;18.908;2023-03-01T04:12:46;18.67;;;7.93;;
70707;SDS011;58277;47.316;18.908;2023-03-01T04:15:10;19.95;;;8.00;;
70707;SDS011;58277;47.316;18.908;2023-03-01T04:17:36;21.00;;;8.23;;
70707;SDS011;58277;47.316;18.908;2023-03-01T04:20:00;20.88;;;8.27;;
70707;SDS011;58277;47.316;18.908;2023-03-01T04:22:28;19.75;;;7.88;;
70707;SDS011;58277;47.316;18.908;2023-03-01T04:24:51;17.70;;;7.33;;
70707;SDS011;58277;47.316;18.908;2023-03-01T04:27:14;18.48;;;8.02;;
70707;SDS011;58277;47.316;18.908;2023-03-01T04:29:37;20.00;;;7.97;;
70707;SDS011;58277;47.316;18.908;2023-03-01T04:32:00;19.50;;;7.78;;
70707;SDS011;58277;47.316;18.908;2023-03-01T04:34:23;19.88;;;7.63;;
70707;SDS011;58277;47.316;18.908;2023-03-01T04:36:46;17.07;;;6.83;;
70707;SDS011;58277;47.316;18.908;2023-03-01T04:39:08;20.48;;;8.50;;
70707;SDS011;58277;47.316;18.908;2023-03-01T04:41:34;20.42;;;9.05;;
70707;SDS011;58277;47.316;18.908;2023-03-01T04:43:57;19.05;;;7.68;;
70707;SDS011;58277;47.316;18.908;2023-03-01T04:46:22;20.92;;;7.97;;
70707;SDS011;58277;47.316;18.908;2023-03-01T04:48:45;19.33;;;8.57;;
70707;SDS011;58277;47.316;18.908;2023-03-01T04:51:09;19.20;;;8.00;;
70707;SDS011;58277;47.316;18.908;2023-03-01T04:53:35;20.60;;;8.25;;
70707;SDS011;58277;47.316;18.908;2023-03-01T04:55:58;22.17;;;8.35;;
70707;SDS011;58277;47.316;18.908;2023-03-01T04:58:25;20.33;;;8.32;;
70707;SDS011;58277;47.316;18.908;2023-03-01T05:00:49;21.60;;;8.47;;
70707;SDS011;58277;47.316;18.908;2023-03-01T05:03:12;19.52;;;7.72;;
70707;SDS011;58277;47.316;18.908;2023-03-01T05:05:35;19.13;;;7.88;;
70707;SDS011;58277;47.316;18.908;2023-03-01T05:08:00;19.65;;;8.73;;
70707;SDS011;58277;47.316;18.908;2023-03-01T05:10:26;20.50;;;8.60;;
70707;SDS011;58277;47.316;18.908;2023-03-01T05:12:54;19.83;;;7.50;;
70707;SDS011;58277;47.316;18.908;2023-03-01T05:15:19;19.85;;;8.75;;
70707;SDS011;58277;47.316;18.908;2023-03-01T05:17:44;22.92;;;8.70;;
70707;SDS011;58277;47.316;18.908;2023-03-01T05:20:08;20.75;;;8.52;;
70707;SDS011;58277;47.316;18.908;2023-03-01T05:22:35;21.40;;;8.07;;
70707;SDS011;58277;47.316;18.908;2023-03-01T05:24:58;19.17;;;7.97;;
70707;SDS011;58277;47.316;18.908;2023-03-01T05:27:21;19.88;;;7.85;;
70707;SDS011;58277;47.316;18.908;2023-03-01T05:32:50;20.50;;;8.20;;
70707;SDS011;58277;47.316;18.908;2023-03-01T05:35:18;19.77;;;8.45;;
70707;SDS011;58277;47.316;18.908;2023-03-01T05:37:47;17.70;;;7.27;;
70707;SDS011;58277;47.316;18.908;2023-03-01T05:40:13;21.50;;;8.68;;
70707;SDS011;58277;47.316;18.908;2023-03-01T05:43:15;22.92;;;9.00;;
70707;SDS011;58277;47.316;18.908;2023-03-01T05:45:29;20.38;;;8.88;;
70707;SDS011;58277;47.316;18.908;2023-03-01T05:47:52;20.33;;;8.73;;
70707;SDS011;58277;47.316;18.908;2023-03-01T05:50:22;18.67;;;8.07;;
70707;SDS011;58277;47.316;18.908;2023-03-01T05:52:52;18.80;;;8.02;;
70707;SDS011;58277;47.316;18.908;2023-03-01T05:55:20;19.63;;;8.25;;
70707;SDS011;58277;47.316;18.908;2023-03-01T05:57:43;21.30;;;8.05;;
70707;SDS011;58277;47.316;18.908;2023-03-01T06:00:08;24.50;;;8.48;;
70707;SDS011;58277;47.316;18.908;2023-03-01T06:02:37;24.07;;;8.63;;
70707;SDS011;58277;47.316;18.908;2023-03-01T06:05:00;21.88;;;8.45;;
70707;SDS011;58277;47.316;18.908;2023-03-01T06:07:23;19.88;;;8.20;;
70707;SDS011;58277;47.316;18.908;2023-03-01T06:09:46;20.73;;;7.78;;
70707;SDS011;58277;47.316;18.908;2023-03-01T06:12:09;20.25;;;8.35;;
70707;SDS011;58277;47.316;18.908;2023-03-01T06:14:34;19.90;;;8.03;;
70707;SDS011;58277;47.316;18.908;2023-03-01T06:16:57;19.13;;;7.43;;
70707;SDS011;58277;47.316;18.908;2023-03-01T06:19:20;18.88;;;7.38;;
70707;SDS011;58277;47.316;18.908;2023-03-01T06:21:43;21.92;;;8.30;;
70707;SDS011;58277;47.316;18.908;2023-03-01T06:24:06;21.67;;;8.43;;
70707;SDS011;58277;47.316;18.908;2023-03-01T06:26:29;21.10;;;8.77;;
70707;SDS011;58277;47.316;18.908;2023-03-01T06:28:52;20.63;;;8.50;;
70707;SDS011;58277;47.316;18.908;2023-03-01T06:31:15;23.38;;;9.07;;
70707;SDS011;58277;47.316;18.908;2023-03-01T06:33:38;20.80;;;8.85;;
70707;SDS011;58277;47.316;18.908;2023-03-01T06:36:02;18.45;;;7.97;;
70707;SDS011;58277;47.316;18.908;2023-03-01T06:38:25;19.77;;;7.33;;
70707;SDS011;58277;47.316;18.908;2023-03-01T06:40:52;20.05;;;8.07;;
70707;SDS011;58277;47.316;18.908;2023-03-01T06:43:17;20.40;;;8.68;;
70707;SDS011;58277;47.316;18.908;2023-03-01T06:45:40;18.58;;;8.15;;
70707;SDS011;58277;47.316;18.908;2023-03-01T06:48:05;22.48;;;9.48;;
70707;SDS011;58277;47.316;18.908;2023-03-01T06:50:30;19.83;;;7.87;;
70707;SDS011;58277;47.316;18.908;2023-03-01T06:52:56;19.13;;;8.18;;
70707;SDS011;58277;47.316;18.908;2023-03-01T06:55:19;20.70;;;8.45;;
70707;SDS011;58277;47.316;18.908;2023-03-01T06:57:43;19.33;;;8.18;;
70707;SDS011;58277;47.316;18.908;2023-03-01T07:00:11;20.70;;;8.52;;
70707;SDS011;58277;47.316;18.908;2023-03-01T07:02:37;22.27;;;8.20;;
70707;SDS011;58277;47.316;18.908;2023-03-01T07:05:02;20.70;;;7.95;;
70707;SDS011;58277;47.316;18.908;2023-03-01T07:07:25;20.48;;;8.65;;
70707;SDS011;58277;47.316;18.908;2023-03-01T07:09:49;21.95;;;7.82;;
70707;SDS011;58277;47.316;18.908;2023-03-01T07:12:12;22.52;;;8.40;;
70707;SDS011;58277;47.316;18.908;2023-03-01T07:14:40;20.10;;;8.80;;
70707;SDS011;58277;47.316;18.908;2023-03-01T07:17:45;20.20;;;8.05;;
70707;SDS011;58277;47.316;18.908;2023-03-01T07:20:11;17.13;;;7.80;;
70707;SDS011;58277;47.316;18.908;2023-03-01T07:22:40;19.50;;;7.55;;
70707;SDS011;58277;47.316;18.908;2023-03-01T07:25:07;18.20;;;8.10;;
70707;SDS011;58277;47.316;18.908;2023-03-01T07:27:34;20.37;;;8.30;;
70707;SDS011;58277;47.316;18.908;2023-03-01T07:29:58;18.27;;;7.95;;
70707;SDS011;58277;47.316;18.908;2023-03-01T07:32:21;21.67;;;8.05;;
70707;SDS011;58277;47.316;18.908;2023-03-01T07:34:44;21.30;;;8.50;;
70707;SDS011;58277;47.316;18.908;2023-03-01T07:37:07;15.13;;;6.68;;
70707;SDS011;58277;47.316;18.908;2023-03-01T07:39:30;17.73;;;7.43;;
70707;SDS011;58277;47.316;18.908;2023-03-01T07:41:53;18.63;;;7.57;;
70707;SDS011;58277;47.316;18.908;2023-03-01T07:47:58;20.60;;;8.57;;
70707;SDS011;58277;47.316;18.908;2023-03-01T07:50:21;18.73;;;7.80;;
70707;SDS011;58277;47.316;18.908;2023-03-01T07:52:46;19.77;;;8.63;;
70707;SDS011;58277;47.316;18.908;2023-03-01T07:55:14;18.23;;;8.00;;
70707;SDS011;58277;47.316;18.908;2023-03-01T07:57:38;18.20;;;8.07;;
70707;SDS011;58277;47.316;18.908;2023-03-01T08:00:01;20.90;;;8.32;;
70707;SDS011;58277;47.316;18.908;2023-03-01T08:02:38;20.67;;;8.40;;
70707;SDS011;58277;47.316;18.908;2023-03-01T08:05:03;20.13;;;8.23;;
70707;SDS011;58277;47.316;18.908;2023-03-01T08:07:26;19.70;;;7.95;;
70707;SDS011;58277;47.316;18.908;2023-03-01T08:09:52;19.52;;;8.38;;
70707;SDS011;58277;47.316;18.908;2023-03-01T08:12:15;18.38;;;8.13;;
70707;SDS011;58277;47.316;18.908;2023-03-01T08:14:39;19.48;;;8.35;;
70707;SDS011;58277;47.316;18.908;2023-03-01T08:17:01;19.67;;;8.70;;
70707;SDS011;58277;47.316;18.908;2023-03-01T08:19:25;20.15;;;8.50;;
70707;SDS011;58277;47.316;18.908;2023-03-01T08:21:50;20.63;;;8.52;;
70707;SDS011;58277;47.316;18.908;2023-03-01T08:24:13;21.40;;;9.20;;
70707;SDS011;58277;47.316;18.908;2023-03-01T08:26:36;22.63;;;9.38;;
70707;SDS011;58277;47.316;18.908;2023-03-01T08:28:59;21.50;;;8.97;;
70707;SDS011;58277;47.316;18.908;2023-03-01T08:33:54;20.42;;;8.85;;
70707;SDS011;58277;47.316;18.908;2023-03-01T08:36:19;22.85;;;10.00;;
70707;SDS011;58277;47.316;18.908;2023-03-01T08:38:43;21.13;;;8.75;;
70707;SDS011;58277;47.316;18.908;2023-03-01T08:41:06;18.93;;;8.10;;
70707;SDS011;58277;47.316;18.908;2023-03-01T08:43:29;20.85;;;8.77;;
70707;SDS011;58277;47.316;18.908;2023-03-01T08:45:53;19.60;;;8.68;;
70707;SDS011;58277;47.316;18.908;2023-03-01T08:48:16;19.80;;;7.57;;
70707;SDS011;58277;47.316;18.908;2023-03-01T08:50:39;22.42;;;9.60;;
70707;SDS011;58277;47.316;18.908;2023-03-01T08:53:03;19.87;;;8.23;;
70707;SDS011;58277;47.316;18.908;2023-03-01T08:56:16;22.20;;;8.00;;
70707;SDS011;58277;47.316;18.908;2023-03-01T08:58:43;17.95;;;7.90;;
70707;SDS011;58277;47.316;18.908;2023-03-01T09:01:10;18.80;;;7.90;;
70707;SDS011;58277;47.316;18.908;2023-03-01T09:03:35;21.50;;;8.45;;
70707;SDS011;58277;47.316;18.908;2023-03-01T09:06:02;18.83;;;8.30;;
70707;SDS011;58277;47.316;18.908;2023-03-01T09:08:26;20.70;;;8.75;;
70707;SDS011;58277;47.316;18.908;2023-03-01T09:10:49;20.70;;;8.40;;
70707;SDS011;58277;47.316;18.908;2023-03-01T09:13:12;23.55;;;8.98;;
70707;SDS011;58277;47.316;18.908;2023-03-01T09:15:36;19.52;;;8.68;;
70707;SDS011;58277;47.316;18.908;2023-03-01T09:18:00;20.10;;;8.30;;
70707;SDS011;58277;47.316;18.908;2023-03-01T09:20:23;19.98;;;8.80;;
70707;SDS011;58277;47.316;18.908;2023-03-01T09:22:46;21.90;;;9.55;;
70707;SDS011;58277;47.316;18.908;2023-03-01T09:25:09;20.95;;;9.68;;
70707;SDS011;58277;47.316;18.908;2023-03-01T09:27:32;21.02;;;9.20;;
70707;SDS011;58277;47.316;18.908;2023-03-01T09:29:55;20.83;;;9.10;;
70707;SDS011;58277;47.316;18.908;2023-03-01T09:32:18;22.40;;;9.77;;
70707;SDS011;58277;47.316;18.908;2023-03-01T09:34:41;23.05;;;9.73;;
70707;SDS011;58277;47.316;18.908;2023-03-01T09:37:23;22.27;;;9.90;;
70707;SDS011;58277;47.316;18.908;2023-03-01T09:39:48;26.50;;;10.45;;
70707;SDS011;58277;47.316;18.908;2023-03-01T09:42:10;24.90;;;10.40;;
70707;SDS011;58277;47.316;18.908;2023-03-01T09:44:42;23.48;;;9.98;;
70707;SDS011;58277;47.316;18.908;2023-03-01T09:47:09;23.30;;;10.25;;
70707;SDS011;58277;47.316;18.908;2023-03-01T09:49:42;19.98;;;9.38;;
70707;SDS011;58277;47.316;18.908;2023-03-01T09:54:56;25.80;;;9.77;;
70707;SDS011;58277;47.316;18.908;2023-03-01T10:24:13;16.10;;;6.68;;
70707;SDS011;58277;47.316;18.908;2023-03-01T10:29:16;21.40;;;9.30;;
70707;SDS011;58277;47.316;18.908;2023-03-01T10:31:41;18.77;;;8.60;;
70707;SDS011;58277;47.316;18.908;2023-03-01T10:34:31;18.35;;;8.98;;
70707;SDS011;58277;47.316;18.908;2023-03-01T10:36:55;19.33;;;8.57;;
70707;SDS011;58277;47.316;18.908;2023-03-01T10:39:21;19.23;;;8.47;;
70707;SDS011;58277;47.316;18.908;2023-03-01T10:41:54;18.20;;;8.88;;
70707;SDS011;58277;47.316;18.908;2023-03-01T10:44:34;20.73;;;8.48;;
70707;SDS011;58277;47.316;18.908;2023-03-01T10:47:01;21.30;;;9.15;;
70707;SDS011;58277;47.316;18.908;2023-03-01T10:49:24;17.75;;;7.80;;
70707;SDS011;58277;47.316;18.908;2023-03-01T10:51:49;18.80;;;8.55;;
70707;SDS011;58277;47.316;18.908;2023-03-01T10:54:30;18.92;;;8.88;;
70707;SDS011;58277;47.316;18.908;2023-03-01T10:56:56;16.60;;;7.88;;
70707;SDS011;58277;47.316;18.908;2023-03-01T11:02:01;14.95;;;7.07;;
70707;SDS011;58277;47.316;18.908;2023-03-01T11:07:24;16.42;;;7.78;;
70707;SDS011;58277;47.316;18.908;2023-03-01T11:09:48;16.08;;;7.85;;
70707;SDS011;58277;47.316;18.908;2023-03-01T11:12:14;17.83;;;8.05;;
70707;SDS011;58277;47.316;18.908;2023-03-01T11:14:38;16.83;;;7.57;;
70707;SDS011;58277;47.316;18.908;2023-03-01T11:17:14;16.40;;;7.73;;
70707;SDS011;58277;47.316;18.908;2023-03-01T11:19:46;18.05;;;8.00;;
70707;SDS011;58277;47.316;18.908;2023-03-01T11:22:25;16.38;;;7.88;;
70707;SDS011;58277;47.316;18.908;2023-03-01T11:24:49;16.23;;;8.07;;
70707;SDS011;58277;47.316;18.908;2023-03-01T11:27:32;16.92;;;8.20;;
70707;SDS011;58277;47.316;18.908;2023-03-01T11:30:05;14.53;;;6.70;;
70707;SDS011;58277;47.316;18.908;2023-03-01T11:32:40;17.35;;;7.93;;
70707;SDS011;58277;47.316;18.908;2023-03-01T11:40:26;16.38;;;7.60;;
70707;SDS011;58277;47.316;18.908;2023-03-01T11:45:24;15.98;;;7.90;;
70707;SDS011;58277;47.316;18.908;2023-03-01T11:50:30;17.60;;;8.45;;
70707;SDS011;58277;47.316;18.908;2023-03-01T12:16:32;14.38;;;6.50;;
70707;SDS011;58277;47.316;18.908;2023-03-01T12:32:40;13.52;;;6.72;;
70707;SDS011;58277;47.316;18.908;2023-03-01T12:37:54;18.07;;;7.60;;
70707;SDS011;58277;47.316;18.908;2023-03-01T12:49:02;14.50;;;6.07;;
70707;SDS011;58277;47.316;18.908;2023-03-01T12:51:30;12.43;;;6.22;;
70707;SDS011;58277;47.316;18.908;2023-03-01T12:53:55;12.38;;;5.68;;
70707;SDS011;58277;47.316;18.908;2023-03-01T13:01:53;15.20;;;6.65;;
70707;SDS011;58277;47.316;18.908;2023-03-01T13:04:49;15.25;;;6.15;;
70707;SDS011;58277;47.316;18.908;2023-03-01T13:07:37;13.82;;;6.00;;
70707;SDS011;58277;47.316;18.908;2023-03-01T13:17:47;12.17;;;5.07;;
70707;SDS011;58277;47.316;18.908;2023-03-01T13:20:17;10.95;;;5.70;;
70707;SDS011;58277;47.316;18.908;2023-03-01T13:22:43;11.60;;;5.38;;
70707;SDS011;58277;47.316;18.908;2023-03-01T13:25:17;12.90;;;5.47;;
70707;SDS011;58277;47.316;18.908;2023-03-01T13:27:42;13.68;;;5.43;;
70707;SDS011;58277;47.316;18.908;2023-03-01T13:35:50;7.80;;;3.70;;
70707;SDS011;58277;47.316;18.908;2023-03-01T13:41:00;12.55;;;4.85;;
70707;SDS011;58277;47.316;18.908;2023-03-01T13:43:27;10.70;;;5.10;;
70707;SDS011;58277;47.316;18.908;2023-03-01T13:46:01;9.23;;;4.90;;
70707;SDS011;58277;47.316;18.908;2023-03-01T13:48:30;11.18;;;5.10;;
70707;SDS011;58277;47.316;18.908;2023-03-01T13:51:13;11.70;;;5.45;;
70707;SDS011;58277;47.316;18.908;2023-03-01T13:53:42;9.77;;;4.53;;
70707;SDS011;58277;47.316;18.908;2023-03-01T13:56:12;11.25;;;5.43;;
70707;SDS011;58277;47.316;18.908;2023-03-01T13:59:04;13.88;;;5.47;;
70707;SDS011;58277;47.316;18.908;2023-03-01T14:01:37;11.65;;;5.43;;
70707;SDS011;58277;47.316;18.908;2023-03-01T14:04:00;13.02;;;5.18;;
70707;SDS011;58277;47.316;18.908;2023-03-01T14:06:26;11.70;;;5.15;;
70707;SDS011;58277;47.316;18.908;2023-03-01T14:09:00;10.60;;;4.83;;
70707;SDS011;58277;47.316;18.908;2023-03-01T14:13:58;13.40;;;5.50;;
70707;SDS011;58277;47.316;18.908;2023-03-01T14:19:43;14.15;;;5.10;;
70707;SDS011;58277;47.316;18.908;2023-03-01T14:22:25;11.10;;;4.63;;
70707;SDS011;58277;47.316;18.908;2023-03-01T14:24:51;9.23;;;4.30;;
70707;SDS011;58277;47.316;18.908;2023-03-01T14:27:17;13.20;;;5.00;;
70707;SDS011;58277;47.316;18.908;2023-03-01T14:29:42;9.00;;;4.47;;
70707;SDS011;58277;47.316;18.908;2023-03-01T14:32:09;10.95;;;4.60;;
70707;SDS011;58277;47.316;18.908;2023-03-01T14:34:35;9.57;;;4.17;;
70707;SDS011;58277;47.316;18.908;2023-03-01T14:37:09;9.82;;;4.65;;
70707;SDS011;58277;47.316;18.908;2023-03-01T14:39:53;12.68;;;5.00;;
70707;SDS011;58277;47.316;18.908;2023-03-01T14:42:17;11.38;;;5.03;;
70707;SDS011;58277;47.316;18.908;2023-03-01T14:44:42;10.00;;;4.82;;
70707;SDS011;58277;47.316;18.908;2023-03-01T14:47:10;10.63;;;4.57;;
70707;SDS011;58277;47.316;18.908;2023-03-01T14:49:36;8.57;;;4.20;;
70707;SDS011;58277;47.316;18.908;2023-03-01T14:52:00;9.00;;;4.28;;
70707;SDS011;58277;47.316;18.908;2023-03-01T14:57:03;9.15;;;4.50;;
70707;SDS011;58277;47.316;18.908;2023-03-01T14:59:26;10.60;;;4.68;;
70707;SDS011;58277;47.316;18.908;2023-03-01T15:01:53;10.10;;;4.38;;
70707;SDS011;58277;47.316;18.908;2023-03-01T15:04:18;9.60;;;4.90;;
70707;SDS011;58277;47.316;18.908;2023-03-01T15:06:42;12.52;;;4.90;;
70707;SDS011;58277;47.316;18.908;2023-03-01T15:09:06;12.10;;;5.22;;
70707;SDS011;58277;47.316;18.908;2023-03-01T15:11:35;12.87;;;5.13;;
70707;SDS011;58277;47.316;18.908;2023-03-01T15:14:01;10.43;;;4.45;;
70707;SDS011;58277;47.316;18.908;2023-03-01T15:16:48;7.85;;;4.13;;
70707;SDS011;58277;47.316;18.908;2023-03-01T15:19:15;10.18;;;4.38;;
70707;SDS011;58277;47.316;18.908;2023-03-01T15:21:40;9.30;;;4.13;;
70707;SDS011;58277;47.316;18.908;2023-03-01T15:26:40;13.25;;;4.55;;
70707;SDS011;58277;47.316;18.908;2023-03-01T15:29:05;12.18;;;4.97;;
70707;SDS011;58277;47.316;18.908;2023-03-01T15:31:39;11.30;;;5.50;;
70707;SDS011;58277;47.316;18.908;2023-03-01T15:37:01;13.15;;;5.50;;
70707;SDS011;58277;47.316;18.908;2023-03-01T15:39:31;14.48;;;5.10;;
70707;SDS011;58277;47.316;18.908;2023-03-01T15:42:00;12.95;;;5.45;;
70707;SDS011;58277;47.316;18.908;2023-03-01T15:47:06;13.25;;;6.03;;
70707;SDS011;58277;47.316;18.908;2023-03-01T15:49:46;13.75;;;6.80;;
70707;SDS011;58277;47.316;18.908;2023-03-01T15:54:51;13.80;;;6.18;;
70707;SDS011;58277;47.316;18.908;2023-03-01T15:57:14;15.80;;;6.00;;
70707;SDS011;58277;47.316;18.908;2023-03-01T15:59:37;14.50;;;6.38;;
70707;SDS011;58277;47.316;18.908;2023-03-01T16:02:00;16.20;;;6.93;;
70707;SDS011;58277;47.316;18.908;2023-03-01T16:04:23;14.80;;;6.60;;
70707;SDS011;58277;47.316;18.908;2023-03-01T16:06:47;14.35;;;6.68;;
70707;SDS011;58277;47.316;18.908;2023-03-01T16:09:16;11.70;;;6.03;;
70707;SDS011;58277;47.316;18.908;2023-03-01T16:11:39;13.20;;;6.65;;
70707;SDS011;58277;47.316;18.908;2023-03-01T16:14:04;14.47;;;5.93;;
70707;SDS011;58277;47.316;18.908;2023-03-01T16:16:27;14.02;;;6.03;;
70707;SDS011;58277;47.316;18.908;2023-03-01T16:18:51;15.13;;;5.80;;
70707;SDS011;58277;47.316;18.908;2023-03-01T16:21:20;12.90;;;6.45;;
70707;SDS011;58277;47.316;18.908;2023-03-01T16:23:47;13.73;;;5.50;;
70707;SDS011;58277;47.316;18.908;2023-03-01T16:26:10;15.97;;;6.07;;
70707;SDS011;58277;47.316;18.908;2023-03-01T16:28:33;12.07;;;5.50;;
70707;SDS011;58277;47.316;18.908;2023-03-01T16:30:55;15.00;;;6.10;;
70707;SDS011;58277;47.316;18.908;2023-03-01T16:33:18;12.50;;;5.53;;
70707;SDS011;58277;47.316;18.908;2023-03-01T16:35:55;13.27;;;5.50;;
70707;SDS011;58277;47.316;18.908;2023-03-01T16:38:18;14.40;;;5.00;;
70707;SDS011;58277;47.316;18.908;2023-03-01T16:40:41;12.95;;;5.40;;
70707;SDS011;58277;47.316;18.908;2023-03-01T16:43:09;15.18;;;5.70;;
70707;SDS011;58277;47.316;18.908;2023-03-01T16:45:34;15.65;;;5.70;;
70707;SDS011;58277;47.316;18.908;2023-03-01T16:48:03;14.82;;;5.68;;
70707;SDS011;58277;47.316;18.908;2023-03-01T16:50:26;18.73;;;7.40;;
70707;SDS011;58277;47.316;18.908;2023-03-01T16:52:50;16.67;;;7.25;;
70707;SDS011;58277;47.316;18.908;2023-03-01T16:55:13;15.32;;;6.43;;
70707;SDS011;58277;47.316;18.908;2023-03-01T16:57:38;13.70;;;6.15;;
70707;SDS011;58277;47.316;18.908;2023-03-01T17:00:05;15.00;;;6.18;;